sensor_id;sensor_type;location;lat;lon;timestamp;pressure;altitude;pressure_sealevel;temperature;humidity
19777;BME280;10047;42.490;26.012;2022-10-26T00:01:06;100332.13;;;14.54;100.00
19777;BME280;10047;42.490;26.012;2022-10-26T00:03:33;100304.88;;;14.09;100.00
19777;BME280;10047;42.490;26.012;2022-10-26T00:08:31;100266.41;;;14.12;100.00
19777;BME280;10047;42.490;26.012;2022-10-26T00:10:57;100279.50;;;14.26;100.00
19777;BME280;10047;42.490;26.012;2022-10-26T00:13:22;100299.97;;;14.26;100.00
19777;BME280;10047;42.490;26.012;2022-10-26T00:15:48;100300.41;;;14.37;100.00
19777;BME280;10047;42.490;26.012;2022-10-26T00:18:13;100318.38;;;14.78;100.00
19777;BME280;10047;42.490;26.012;2022-10-26T00:20:39;100277.53;;;14.34;100.00
19777;BME280;10047;42.490;26.012;2022-10-26T00:23:04;100328.25;;;14.66;100.00
19777;BME280;10047;42.490;26.012;2022-10-26T00:25:30;100258.38;;;14.21;100.00
19777;BME280;10047;42.490;26.012;2022-10-26T00:27:55;100280.19;;;14.31;100.00
19777;BME280;10047;42.490;26.012;2022-10-26T00:30:21;100292.97;;;14.31;100.00
19777;BME280;10047;42.490;26.012;2022-10-26T00:32:46;100293.66;;;14.36;100.00
19777;BME280;10047;42.490;26.012;2022-10-26T00:35:11;100315.53;;;14.43;100.00
19777;BME280;10047;42.490;26.012;2022-10-26T00:37:37;100291.97;;;14.35;100.00
19777;BME280;10047;42.490;26.012;2022-10-26T00:40:03;100329.47;;;14.57;100.00
19777;BME280;10047;42.490;26.012;2022-10-26T00:42:28;100295.88;;;14.22;100.00
19777;BME280;10047;42.490;26.012;2022-10-26T00:47:33;100343.97;;;14.35;100.00
19777;BME280;10047;42.490;26.012;2022-10-26T00:50:10;100287.41;;;14.20;100.00
19777;BME280;10047;42.490;26.012;2022-10-26T00:52:39;100322.50;;;14.61;100.00
19777;BME280;10047;42.490;26.012;2022-10-26T00:55:06;100288.41;;;14.60;100.00
19777;BME280;10047;42.490;26.012;2022-10-26T00:57:33;100333.03;;;14.97;100.00
19777;BME280;10047;42.490;26.012;2022-10-26T00:59:59;100326.56;;;15.08;100.00
19777;BME280;10047;42.490;26.012;2022-10-26T01:02:26;100234.66;;;14.17;100.00
19777;BME280;10047;42.490;26.012;2022-10-26T01:04:52;100294.31;;;14.18;100.00
19777;BME280;10047;42.490;26.012;2022-10-26T01:07:19;100287.78;;;14.54;100.00
19777;BME280;10047;42.490;26.012;2022-10-26T01:09:45;100231.41;;;14.14;100.00
19777;BME280;10047;42.490;26.012;2022-10-26T01:12:10;100265.91;;;14.47;100.00
19777;BME280;10047;42.490;26.012;2022-10-26T01:14:36;100330.53;;;14.52;100.00
19777;BME280;10047;42.490;26.012;2022-10-26T01:22:53;100320.81;;;14.38;100.00
19777;BME280;10047;42.490;26.012;2022-10-26T01:31:07;100282.47;;;13.69;100.00
19777;BME280;10047;42.490;26.012;2022-10-26T01:33:40;100337.22;;;14.10;100.00
19777;BME280;10047;42.490;26.012;2022-10-26T01:36:13;100293.44;;;13.72;100.00
19777;BME280;10047;42.490;26.012;2022-10-26T01:38:55;100356.78;;;14.11;100.00
19777;BME280;10047;42.490;26.012;2022-10-26T01:41:30;100343.63;;;13.98;100.00
19777;BME280;10047;42.490;26.012;2022-10-26T01:44:09;100325.72;;;13.98;100.00
19777;BME280;10047;42.490;26.012;2022-10-26T01:46:40;100339.09;;;14.29;100.00
19777;BME280;10047;42.490;26.012;2022-10-26T01:49:12;100279.59;;;14.01;100.00
19777;BME280;10047;42.490;26.012;2022-10-26T01:51:41;100292.19;;;14.29;100.00
19777;BME280;10047;42.490;26.012;2022-10-26T01:54:08;100279.94;;;14.58;100.00
19777;BME280;10047;42.490;26.012;2022-10-26T01:56:35;100334.59;;;14.79;100.00
19777;BME280;10047;42.490;26.012;2022-10-26T02:04:46;100351.69;;;15.20;100.00
19777;BME280;10047;42.490;26.012;2022-10-26T02:07:25;100287.13;;;15.12;100.00
19777;BME280;10047;42.490;26.012;2022-10-26T02:13:40;100233.28;;;14.52;100.00
19777;BME280;10047;42.490;26.012;2022-10-26T02:19:24;100313.41;;;14.96;100.00
19777;BME280;10047;42.490;26.012;2022-10-26T02:21:56;100259.75;;;14.72;100.00
19777;BME280;10047;42.490;26.012;2022-10-26T02:24:25;100352.88;;;15.12;100.00
19777;BME280;10047;42.490;26.012;2022-10-26T02:26:52;100266.47;;;16.84;100.00
19777;BME280;10047;42.490;26.012;2022-10-26T02:29:21;100309.66;;;17.62;100.00
19777;BME280;10047;42.490;26.012;2022-10-26T02:31:48;100321.28;;;18.33;100.00
19777;BME280;10047;42.490;26.012;2022-10-26T02:34:21;100290.16;;;17.90;100.00
19777;BME280;10047;42.490;26.012;2022-10-26T02:36:49;100289.34;;;18.21;100.00
19777;BME280;10047;42.490;26.012;2022-10-26T02:39:18;100290.59;;;18.14;100.00
19777;BME280;10047;42.490;26.012;2022-10-26T02:41:45;100305.44;;;18.09;100.00
19777;BME280;10047;42.490;26.012;2022-10-26T02:44:23;100361.06;;;18.11;100.00
19777;BME280;10047;42.490;26.012;2022-10-26T02:46:50;100354.13;;;17.64;100.00
19777;BME280;10047;42.490;26.012;2022-10-26T02:49:16;100354.44;;;17.06;100.00
19777;BME280;10047;42.490;26.012;2022-10-26T02:51:49;100362.75;;;16.76;100.00
19777;BME280;10047;42.490;26.012;2022-10-26T02:56:51;100364.22;;;16.81;100.00
19777;BME280;10047;42.490;26.012;2022-10-26T02:59:21;100371.84;;;16.83;100.00
19777;BME280;10047;42.490;26.012;2022-10-26T03:01:49;100329.47;;;16.00;100.00
19777;BME280;10047;42.490;26.012;2022-10-26T03:04:16;100330.31;;;16.37;100.00
19777;BME280;10047;42.490;26.012;2022-10-26T03:06:41;100372.59;;;16.10;100.00
19777;BME280;10047;42.490;26.012;2022-10-26T03:09:06;100365.91;;;15.88;100.00
19777;BME280;10047;42.490;26.012;2022-10-26T03:11:32;100349.84;;;16.03;100.00
19777;BME280;10047;42.490;26.012;2022-10-26T03:13:57;100340.63;;;15.80;100.00
19777;BME280;10047;42.490;26.012;2022-10-26T03:16:23;100340.72;;;15.58;100.00
19777;BME280;10047;42.490;26.012;2022-10-26T03:18:48;100403.09;;;15.78;100.00
19777;BME280;10047;42.490;26.012;2022-10-26T03:21:13;100387.28;;;15.68;100.00
19777;BME280;10047;42.490;26.012;2022-10-26T03:23:39;100400.63;;;16.15;100.00
19777;BME280;10047;42.490;26.012;2022-10-26T03:26:06;100334.25;;;16.44;100.00
19777;BME280;10047;42.490;26.012;2022-10-26T03:28:31;100388.97;;;16.08;100.00
19777;BME280;10047;42.490;26.012;2022-10-26T03:30:57;100413.66;;;16.29;100.00
19777;BME280;10047;42.490;26.012;2022-10-26T03:33:22;100360.22;;;16.20;100.00
19777;BME280;10047;42.490;26.012;2022-10-26T03:35:53;100419.50;;;17.07;100.00
19777;BME280;10047;42.490;26.012;2022-10-26T03:38:19;100434.25;;;16.66;100.00
19777;BME280;10047;42.490;26.012;2022-10-26T03:40:45;100430.16;;;16.81;100.00
19777;BME280;10047;42.490;26.012;2022-10-26T03:43:12;100369.09;;;16.50;100.00
19777;BME280;10047;42.490;26.012;2022-10-26T03:45:38;100415.16;;;16.90;100.00
19777;BME280;10047;42.490;26.012;2022-10-26T03:48:03;100366.59;;;16.67;100.00
19777;BME280;10047;42.490;26.012;2022-10-26T03:50:29;100416.16;;;17.58;100.00
19777;BME280;10047;42.490;26.012;2022-10-26T03:52:54;100410.22;;;17.21;100.00
19777;BME280;10047;42.490;26.012;2022-10-26T03:55:19;100406.53;;;17.61;100.00
19777;BME280;10047;42.490;26.012;2022-10-26T03:57:45;100407.59;;;17.40;100.00
19777;BME280;10047;42.490;26.012;2022-10-26T04:00:13;100430.16;;;17.69;100.00
19777;BME280;10047;42.490;26.012;2022-10-26T04:02:52;100374.19;;;17.23;100.00
19777;BME280;10047;42.490;26.012;2022-10-26T04:05:17;100354.56;;;17.38;100.00
19777;BME280;10047;42.490;26.012;2022-10-26T04:07:43;100413.69;;;17.38;100.00
19777;BME280;10047;42.490;26.012;2022-10-26T04:10:09;100396.00;;;17.31;100.00
19777;BME280;10047;42.490;26.012;2022-10-26T04:12:38;100377.47;;;17.08;100.00
19777;BME280;10047;42.490;26.012;2022-10-26T04:15:04;100431.47;;;17.25;100.00
19777;BME280;10047;42.490;26.012;2022-10-26T04:17:31;100385.00;;;16.94;100.00
19777;BME280;10047;42.490;26.012;2022-10-26T04:19:56;100388.25;;;16.62;100.00
19777;BME280;10047;42.490;26.012;2022-10-26T04:22:22;100411.84;;;16.70;100.00
19777;BME280;10047;42.490;26.012;2022-10-26T04:24:47;100436.16;;;16.98;100.00
19777;BME280;10047;42.490;26.012;2022-10-26T04:27:14;100415.50;;;16.64;100.00
19777;BME280;10047;42.490;26.012;2022-10-26T04:29:39;100327.22;;;16.48;100.00
19777;BME280;10047;42.490;26.012;2022-10-26T04:32:05;100443.84;;;16.81;100.00
19777;BME280;10047;42.490;26.012;2022-10-26T04:34:31;100379.69;;;16.42;100.00
19777;BME280;10047;42.490;26.012;2022-10-26T04:36:57;100446.56;;;16.60;100.00
19777;BME280;10047;42.490;26.012;2022-10-26T04:39:22;100457.50;;;16.63;100.00
19777;BME280;10047;42.490;26.012;2022-10-26T04:41:48;100419.19;;;16.77;100.00
19777;BME280;10047;42.490;26.012;2022-10-26T04:44:14;100409.00;;;16.57;100.00
19777;BME280;10047;42.490;26.012;2022-10-26T04:46:39;100420.13;;;16.58;100.00
19777;BME280;10047;42.490;26.012;2022-10-26T04:49:05;100426.56;;;16.46;100.00
19777;BME280;10047;42.490;26.012;2022-10-26T04:51:30;100459.00;;;17.40;100.00
19777;BME280;10047;42.490;26.012;2022-10-26T04:53:55;100363.94;;;17.21;100.00
19777;BME280;10047;42.490;26.012;2022-10-26T04:56:22;100441.91;;;17.39;100.00
19777;BME280;10047;42.490;26.012;2022-10-26T04:58:47;100463.47;;;17.37;100.00
19777;BME280;10047;42.490;26.012;2022-10-26T05:01:13;100430.72;;;17.40;100.00
19777;BME280;10047;42.490;26.012;2022-10-26T05:03:38;100478.31;;;17.83;100.00
19777;BME280;10047;42.490;26.012;2022-10-26T05:06:04;100481.59;;;17.52;100.00
19777;BME280;10047;42.490;26.012;2022-10-26T05:08:29;100434.69;;;17.11;100.00
19777;BME280;10047;42.490;26.012;2022-10-26T05:10:55;100483.34;;;17.33;100.00
19777;BME280;10047;42.490;26.012;2022-10-26T05:13:20;100481.66;;;17.51;100.00
19777;BME280;10047;42.490;26.012;2022-10-26T05:15:46;100490.41;;;17.47;100.00
19777;BME280;10047;42.490;26.012;2022-10-26T05:18:11;100495.50;;;17.29;100.00
19777;BME280;10047;42.490;26.012;2022-10-26T05:20:36;100457.69;;;17.14;100.00
19777;BME280;10047;42.490;26.012;2022-10-26T05:23:04;100500.72;;;19.58;100.00
19777;BME280;10047;42.490;26.012;2022-10-26T05:25:33;100504.09;;;19.74;100.00
19777;BME280;10047;42.490;26.012;2022-10-26T05:28:00;100495.56;;;19.12;100.00
19777;BME280;10047;42.490;26.012;2022-10-26T05:30:27;100446.56;;;20.44;99.68
19777;BME280;10047;42.490;26.012;2022-10-26T05:32:57;100500.53;;;20.63;97.50
19777;BME280;10047;42.490;26.012;2022-10-26T05:35:23;100415.25;;;19.19;100.00
19777;BME280;10047;42.490;26.012;2022-10-26T05:37:48;100524.72;;;19.45;100.00
19777;BME280;10047;42.490;26.012;2022-10-26T05:40:14;100449.03;;;19.15;100.00
19777;BME280;10047;42.490;26.012;2022-10-26T05:42:41;100429.56;;;19.09;100.00
19777;BME280;10047;42.490;26.012;2022-10-26T05:45:07;100516.06;;;18.99;100.00
19777;BME280;10047;42.490;26.012;2022-10-26T05:47:39;100512.63;;;19.91;100.00
19777;BME280;10047;42.490;26.012;2022-10-26T05:50:06;100470.53;;;20.18;100.00
19777;BME280;10047;42.490;26.012;2022-10-26T05:52:43;100495.50;;;20.04;100.00
19777;BME280;10047;42.490;26.012;2022-10-26T05:55:11;100528.75;;;19.94;100.00
19777;BME280;10047;42.490;26.012;2022-10-26T05:57:37;100541.78;;;20.79;100.00
19777;BME280;10047;42.490;26.012;2022-10-26T06:00:08;100524.88;;;22.33;82.31
19777;BME280;10047;42.490;26.012;2022-10-26T06:05:07;100544.34;;;22.89;74.23
19777;BME280;10047;42.490;26.012;2022-10-26T06:07:35;100568.31;;;23.28;71.83
19777;BME280;10047;42.490;26.012;2022-10-26T06:10:01;100498.53;;;22.39;70.56
19777;BME280;10047;42.490;26.012;2022-10-26T06:12:27;100557.53;;;22.35;78.09
19777;BME280;10047;42.490;26.012;2022-10-26T06:14:53;100528.59;;;22.67;73.61
19777;BME280;10047;42.490;26.012;2022-10-26T06:17:44;100578.56;;;21.65;81.37
19777;BME280;10047;42.490;26.012;2022-10-26T06:28:42;100574.94;;;20.14;100.00
19777;BME280;10047;42.490;26.012;2022-10-26T06:31:12;100581.50;;;20.20;100.00
19777;BME280;10047;42.490;26.012;2022-10-26T06:33:38;100529.66;;;19.93;100.00
19777;BME280;10047;42.490;26.012;2022-10-26T06:38:31;100568.16;;;20.41;100.00
19777;BME280;10047;42.490;26.012;2022-10-26T06:40:58;100514.69;;;20.14;100.00
19777;BME280;10047;42.490;26.012;2022-10-26T06:43:33;100539.53;;;20.30;100.00
19777;BME280;10047;42.490;26.012;2022-10-26T06:48:38;100569.84;;;20.70;100.00
19777;BME280;10047;42.490;26.012;2022-10-26T06:51:11;100512.44;;;20.80;100.00
19777;BME280;10047;42.490;26.012;2022-10-26T06:53:45;100585.25;;;20.86;97.88
19777;BME280;10047;42.490;26.012;2022-10-26T06:56:13;100580.81;;;20.88;98.12
19777;BME280;10047;42.490;26.012;2022-10-26T06:58:39;100582.78;;;21.13;95.69
19777;BME280;10047;42.490;26.012;2022-10-26T07:01:05;100600.06;;;21.12;94.62
19777;BME280;10047;42.490;26.012;2022-10-26T07:03:31;100589.09;;;21.35;94.78
19777;BME280;10047;42.490;26.012;2022-10-26T07:05:56;100587.94;;;21.27;99.90
19777;BME280;10047;42.490;26.012;2022-10-26T07:08:22;100587.97;;;21.80;91.18
19777;BME280;10047;42.490;26.012;2022-10-26T07:10:48;100592.78;;;21.45;95.15
19777;BME280;10047;42.490;26.012;2022-10-26T07:13:13;100606.06;;;21.27;95.91
19777;BME280;10047;42.490;26.012;2022-10-26T07:15:39;100604.63;;;21.35;98.26
19777;BME280;10047;42.490;26.012;2022-10-26T07:18:06;100559.78;;;20.94;100.00
19777;BME280;10047;42.490;26.012;2022-10-26T07:20:35;100597.00;;;21.61;98.17
19777;BME280;10047;42.490;26.012;2022-10-26T07:23:01;100572.91;;;21.05;100.00
19777;BME280;10047;42.490;26.012;2022-10-26T07:25:27;100556.75;;;21.02;98.55
19777;BME280;10047;42.490;26.012;2022-10-26T07:27:57;100606.47;;;21.74;96.05
19777;BME280;10047;42.490;26.012;2022-10-26T07:30:24;100543.59;;;21.19;92.75
19777;BME280;10047;42.490;26.012;2022-10-26T07:32:50;100550.16;;;21.24;94.52
19777;BME280;10047;42.490;26.012;2022-10-26T07:35:15;100591.38;;;22.07;89.09
19777;BME280;10047;42.490;26.012;2022-10-26T07:37:40;100612.56;;;21.73;88.59
19777;BME280;10047;42.490;26.012;2022-10-26T07:40:06;100613.50;;;21.86;86.84
19777;BME280;10047;42.490;26.012;2022-10-26T07:42:32;100566.16;;;21.43;88.14
19777;BME280;10047;42.490;26.012;2022-10-26T07:44:58;100552.41;;;21.43;87.90
19777;BME280;10047;42.490;26.012;2022-10-26T07:47:23;100556.56;;;21.72;87.82
19777;BME280;10047;42.490;26.012;2022-10-26T07:49:49;100613.19;;;22.30;84.30
19777;BME280;10047;42.490;26.012;2022-10-26T07:52:14;100610.50;;;21.92;85.78
19777;BME280;10047;42.490;26.012;2022-10-26T07:54:39;100560.78;;;21.73;84.62
19777;BME280;10047;42.490;26.012;2022-10-26T07:57:05;100594.50;;;22.12;82.96
19777;BME280;10047;42.490;26.012;2022-10-26T07:59:30;100608.59;;;22.08;85.62
19777;BME280;10047;42.490;26.012;2022-10-26T08:01:56;100513.78;;;21.79;83.16
19777;BME280;10047;42.490;26.012;2022-10-26T08:04:21;100560.25;;;21.82;83.25
19777;BME280;10047;42.490;26.012;2022-10-26T08:06:46;100566.78;;;21.88;83.60
19777;BME280;10047;42.490;26.012;2022-10-26T08:09:13;100614.25;;;22.40;85.10
19777;BME280;10047;42.490;26.012;2022-10-26T08:11:38;100608.41;;;21.85;85.00
19777;BME280;10047;42.490;26.012;2022-10-26T08:14:04;100559.88;;;21.47;87.80
19777;BME280;10047;42.490;26.012;2022-10-26T08:16:29;100604.66;;;22.15;82.78
19777;BME280;10047;42.490;26.012;2022-10-26T08:18:55;100616.03;;;22.77;79.02
19777;BME280;10047;42.490;26.012;2022-10-26T08:21:21;100607.78;;;22.33;80.34
19777;BME280;10047;42.490;26.012;2022-10-26T08:23:46;100567.03;;;22.22;80.09
19777;BME280;10047;42.490;26.012;2022-10-26T08:26:12;100543.28;;;22.03;74.97
19777;BME280;10047;42.490;26.012;2022-10-26T08:28:38;100581.03;;;22.32;77.32
19777;BME280;10047;42.490;26.012;2022-10-26T08:31:04;100601.00;;;22.70;78.17
19777;BME280;10047;42.490;26.012;2022-10-26T08:33:29;100617.50;;;22.69;75.39
19777;BME280;10047;42.490;26.012;2022-10-26T08:35:56;100622.75;;;23.05;76.40
19777;BME280;10047;42.490;26.012;2022-10-26T08:38:22;100626.88;;;23.33;72.21
19777;BME280;10047;42.490;26.012;2022-10-26T08:40:48;100617.78;;;23.02;69.32
19777;BME280;10047;42.490;26.012;2022-10-26T08:43:21;100624.63;;;22.90;68.13
19777;BME280;10047;42.490;26.012;2022-10-26T08:45:58;100627.56;;;22.73;69.92
19777;BME280;10047;42.490;26.012;2022-10-26T08:48:29;100631.19;;;22.83;71.67
19777;BME280;10047;42.490;26.012;2022-10-26T08:51:03;100608.41;;;23.12;67.57
19777;BME280;10047;42.490;26.012;2022-10-26T08:53:56;100632.84;;;23.58;67.43
19777;BME280;10047;42.490;26.012;2022-10-26T08:56:25;100586.81;;;23.37;66.40
19777;BME280;10047;42.490;26.012;2022-10-26T08:59:04;100637.84;;;24.08;64.51
19777;BME280;10047;42.490;26.012;2022-10-26T09:01:33;100629.13;;;23.97;63.95
19777;BME280;10047;42.490;26.012;2022-10-26T09:04:01;100638.47;;;23.52;64.79
19777;BME280;10047;42.490;26.012;2022-10-26T09:09:23;100586.25;;;23.91;62.85
19777;BME280;10047;42.490;26.012;2022-10-26T09:25:40;100575.53;;;24.42;57.49
19777;BME280;10047;42.490;26.012;2022-10-26T09:28:17;100571.03;;;24.33;57.94
19777;BME280;10047;42.490;26.012;2022-10-26T09:30:46;100570.06;;;23.99;60.25
19777;BME280;10047;42.490;26.012;2022-10-26T09:33:21;100620.28;;;23.99;60.08
19777;BME280;10047;42.490;26.012;2022-10-26T09:35:51;100633.78;;;24.28;57.90
19777;BME280;10047;42.490;26.012;2022-10-26T09:41:04;100618.19;;;24.39;59.33
19777;BME280;10047;42.490;26.012;2022-10-26T09:43:44;100633.13;;;24.70;57.44
19777;BME280;10047;42.490;26.012;2022-10-26T09:46:17;100611.13;;;24.52;57.94
19777;BME280;10047;42.490;26.012;2022-10-26T09:48:50;100611.75;;;24.67;56.63
19777;BME280;10047;42.490;26.012;2022-10-26T09:51:18;100621.94;;;24.70;56.53
19777;BME280;10047;42.490;26.012;2022-10-26T09:53:44;100624.22;;;24.85;56.14
19777;BME280;10047;42.490;26.012;2022-10-26T09:56:11;100569.50;;;24.30;56.32
19777;BME280;10047;42.490;26.012;2022-10-26T09:58:41;100625.28;;;24.83;57.27
19777;BME280;10047;42.490;26.012;2022-10-26T10:01:34;100584.34;;;24.96;55.67
19777;BME280;10047;42.490;26.012;2022-10-26T10:06:49;100572.28;;;24.73;54.48
19777;BME280;10047;42.490;26.012;2022-10-26T10:09:22;100561.47;;;24.33;55.29
19777;BME280;10047;42.490;26.012;2022-10-26T10:11:54;100575.09;;;25.14;54.37
19777;BME280;10047;42.490;26.012;2022-10-26T10:14:38;100546.47;;;24.59;53.33
19777;BME280;10047;42.490;26.012;2022-10-26T10:17:18;100602.75;;;25.26;53.57
19777;BME280;10047;42.490;26.012;2022-10-26T10:19:45;100546.72;;;25.00;52.63
19777;BME280;10047;42.490;26.012;2022-10-26T10:22:18;100543.34;;;25.31;52.52
19777;BME280;10047;42.490;26.012;2022-10-26T10:25:00;100597.56;;;25.80;50.66
19777;BME280;10047;42.490;26.012;2022-10-26T10:27:27;100549.72;;;25.38;51.54
19777;BME280;10047;42.490;26.012;2022-10-26T10:29:55;100541.03;;;24.84;51.99
19777;BME280;10047;42.490;26.012;2022-10-26T10:32:25;100587.94;;;25.38;51.67
19777;BME280;10047;42.490;26.012;2022-10-26T10:34:53;100545.44;;;25.48;51.40
19777;BME280;10047;42.490;26.012;2022-10-26T10:37:42;100577.41;;;25.82;51.01
19777;BME280;10047;42.490;26.012;2022-10-26T10:42:43;100585.59;;;25.46;51.50
19777;BME280;10047;42.490;26.012;2022-10-26T10:45:24;100590.44;;;25.28;51.28
19777;BME280;10047;42.490;26.012;2022-10-26T10:48:13;100549.84;;;25.26;51.01
19777;BME280;10047;42.490;26.012;2022-10-26T10:50:56;100568.41;;;25.54;51.44
19777;BME280;10047;42.490;26.012;2022-10-26T11:01:21;100528.00;;;25.60;49.87
19777;BME280;10047;42.490;26.012;2022-10-26T11:06:27;100567.13;;;26.12;49.95
19777;BME280;10047;42.490;26.012;2022-10-26T11:11:52;100551.91;;;25.86;50.29
19777;BME280;10047;42.490;26.012;2022-10-26T11:14:24;100518.72;;;25.35;49.34
19777;BME280;10047;42.490;26.012;2022-10-26T11:17:09;100560.22;;;26.11;49.41
19777;BME280;10047;42.490;26.012;2022-10-26T11:19:50;100565.31;;;26.33;48.69
19777;BME280;10047;42.490;26.012;2022-10-26T11:22:23;100550.28;;;26.05;48.36
19777;BME280;10047;42.490;26.012;2022-10-26T11:25:03;100562.41;;;26.57;47.74
19777;BME280;10047;42.490;26.012;2022-10-26T11:27:38;100511.44;;;25.82;48.05
19777;BME280;10047;42.490;26.012;2022-10-26T11:30:19;100559.72;;;26.68;47.07
19777;BME280;10047;42.490;26.012;2022-10-26T11:33:00;100498.16;;;25.21;48.98
19777;BME280;10047;42.490;26.012;2022-10-26T11:35:31;100556.00;;;25.99;49.10
19777;BME280;10047;42.490;26.012;2022-10-26T11:38:18;100556.81;;;26.00;47.69
19777;BME280;10047;42.490;26.012;2022-10-26T11:41:05;100571.06;;;25.96;48.17
19777;BME280;10047;42.490;26.012;2022-10-26T11:43:45;100545.16;;;26.15;48.25
19777;BME280;10047;42.490;26.012;2022-10-26T11:46:25;100562.38;;;26.47;47.36
19777;BME280;10047;42.490;26.012;2022-10-26T11:54:14;100508.03;;;26.22;46.80
19777;BME280;10047;42.490;26.012;2022-10-26T11:56:46;100546.44;;;26.71;46.95
19777;BME280;10047;42.490;26.012;2022-10-26T11:59:18;100554.63;;;26.36;46.51
19777;BME280;10047;42.490;26.012;2022-10-26T12:01:53;100549.78;;;26.92;46.85
19777;BME280;10047;42.490;26.012;2022-10-26T12:04:22;100501.34;;;26.69;45.68
19777;BME280;10047;42.490;26.012;2022-10-26T12:06:50;100490.97;;;26.79;45.08
19777;BME280;10047;42.490;26.012;2022-10-26T12:09:32;100502.03;;;27.20;45.79
19777;BME280;10047;42.490;26.012;2022-10-26T12:17:10;100540.03;;;26.85;45.42
19777;BME280;10047;42.490;26.012;2022-10-26T12:22:10;100544.41;;;26.84;44.50
19777;BME280;10047;42.490;26.012;2022-10-26T12:24:42;100503.72;;;26.72;43.74
19777;BME280;10047;42.490;26.012;2022-10-26T12:27:32;100463.78;;;27.00;44.63
19777;BME280;10047;42.490;26.012;2022-10-26T12:30:31;100541.50;;;27.17;44.65
19777;BME280;10047;42.490;26.012;2022-10-26T12:33:01;100536.59;;;26.54;45.21
19777;BME280;10047;42.490;26.012;2022-10-26T12:35:38;100547.81;;;26.75;45.15
19777;BME280;10047;42.490;26.012;2022-10-26T12:41:07;100463.19;;;25.66;46.40
19777;BME280;10047;42.490;26.012;2022-10-26T12:43:36;100492.66;;;26.29;45.45
19777;BME280;10047;42.490;26.012;2022-10-26T12:48:48;100497.72;;;26.00;47.00
19777;BME280;10047;42.490;26.012;2022-10-26T12:59:31;100547.41;;;26.49;46.09
19777;BME280;10047;42.490;26.012;2022-10-26T13:08:07;100493.63;;;26.58;45.41
19777;BME280;10047;42.490;26.012;2022-10-26T13:10:34;100559.09;;;26.55;45.92
19777;BME280;10047;42.490;26.012;2022-10-26T13:13:03;100549.97;;;26.40;45.80
19777;BME280;10047;42.490;26.012;2022-10-26T13:15:40;100481.59;;;26.06;46.20
19777;BME280;10047;42.490;26.012;2022-10-26T13:18:18;100501.41;;;26.18;46.36
19777;BME280;10047;42.490;26.012;2022-10-26T13:21:12;100540.81;;;25.52;47.58
19777;BME280;10047;42.490;26.012;2022-10-26T13:26:27;100547.69;;;25.85;47.44
19777;BME280;10047;42.490;26.012;2022-10-26T13:28:55;100505.00;;;25.86;47.09
19777;BME280;10047;42.490;26.012;2022-10-26T13:39:05;100489.13;;;24.60;49.17
19777;BME280;10047;42.490;26.012;2022-10-26T13:41:40;100516.31;;;25.43;48.05
19777;BME280;10047;42.490;26.012;2022-10-26T13:44:13;100527.16;;;25.59;47.83
19777;BME280;10047;42.490;26.012;2022-10-26T13:46:41;100537.75;;;25.78;47.35
19777;BME280;10047;42.490;26.012;2022-10-26T13:49:32;100541.28;;;26.09;46.87
19777;BME280;10047;42.490;26.012;2022-10-26T13:52:01;100509.72;;;25.71;47.50
19777;BME280;10047;42.490;26.012;2022-10-26T13:57:11;100512.72;;;25.55;46.68
19777;BME280;10047;42.490;26.012;2022-10-26T13:59:41;100510.09;;;25.24;46.99
19777;BME280;10047;42.490;26.012;2022-10-26T14:02:28;100565.09;;;25.84;47.59
19777;BME280;10047;42.490;26.012;2022-10-26T14:05:02;100571.75;;;25.34;48.60
19777;BME280;10047;42.490;26.012;2022-10-26T14:07:39;100551.16;;;25.74;47.09
19777;BME280;10047;42.490;26.012;2022-10-26T14:10:05;100546.69;;;29.68;42.00
19777;BME280;10047;42.490;26.012;2022-10-26T14:12:31;100565.56;;;30.07;39.29
19777;BME280;10047;42.490;26.012;2022-10-26T14:15:04;100579.75;;;29.78;40.08
19777;BME280;10047;42.490;26.012;2022-10-26T14:17:30;100470.84;;;27.48;42.18
19777;BME280;10047;42.490;26.012;2022-10-26T14:19:56;100575.44;;;28.61;41.35
19777;BME280;10047;42.490;26.012;2022-10-26T14:22:24;100566.97;;;28.76;41.65
19777;BME280;10047;42.490;26.012;2022-10-26T14:24:57;100531.09;;;27.36;43.55
19777;BME280;10047;42.490;26.012;2022-10-26T14:27:25;100522.09;;;27.10;43.30
19777;BME280;10047;42.490;26.012;2022-10-26T14:29:53;100526.00;;;28.02;41.61
19777;BME280;10047;42.490;26.012;2022-10-26T14:32:30;100498.50;;;27.50;42.87
19777;BME280;10047;42.490;26.012;2022-10-26T14:35:00;100580.03;;;26.95;44.11
19777;BME280;10047;42.490;26.012;2022-10-26T14:37:49;100580.34;;;27.70;43.09
19777;BME280;10047;42.490;26.012;2022-10-26T14:40:18;100521.06;;;27.70;42.58
19777;BME280;10047;42.490;26.012;2022-10-26T14:42:46;100540.16;;;25.91;45.74
19777;BME280;10047;42.490;26.012;2022-10-26T14:45:29;100587.06;;;24.94;48.22
19777;BME280;10047;42.490;26.012;2022-10-26T14:47:55;100580.44;;;24.79;49.03
19777;BME280;10047;42.490;26.012;2022-10-26T14:50:22;100485.63;;;23.93;51.06
19777;BME280;10047;42.490;26.012;2022-10-26T14:52:51;100562.75;;;24.28;55.07
19777;BME280;10047;42.490;26.012;2022-10-26T14:55:17;100516.63;;;23.73;59.09
19777;BME280;10047;42.490;26.012;2022-10-26T14:57:45;100588.69;;;24.05;63.37
19777;BME280;10047;42.490;26.012;2022-10-26T15:02:41;100544.69;;;23.08;69.28